sensor_id;sensor_type;location;lat;lon;timestamp;temperature;humidity
23685;DHT22;12020;51.384;6.908;2023-03-03T00:00:50;2.50;99.90
23685;DHT22;12020;51.384;6.908;2023-03-03T00:03:20;2.40;99.90
23685;DHT22;12020;51.384;6.908;2023-03-03T00:05:45;2.50;99.90
23685;DHT22;12020;51.384;6.908;2023-03-03T00:08:11;2.50;99.90
23685;DHT22;12020;51.384;6.908;2023-03-03T00:10:38;2.50;99.90
23685;DHT22;12020;51.384;6.908;2023-03-03T00:13:15;2.40;99.90
23685;DHT22;12020;51.384;6.908;2023-03-03T00:15:43;2.40;99.90
23685;DHT22;12020;51.384;6.908;2023-03-03T00:18:30;2.40;99.90
23685;DHT22;12020;51.384;6.908;2023-03-03T00:21:00;2.30;99.90
23685;DHT22;12020;51.384;6.908;2023-03-03T00:23:44;2.40;99.90
23685;DHT22;12020;51.384;6.908;2023-03-03T00:28:50;2.50;99.90
23685;DHT22;12020;51.384;6.908;2023-03-03T00:31:18;2.50;99.90
23685;DHT22;12020;51.384;6.908;2023-03-03T00:33:49;2.50;99.90
23685;DHT22;12020;51.384;6.908;2023-03-03T00:38:48;2.60;99.90
23685;DHT22;12020;51.384;6.908;2023-03-03T00:41:25;2.70;99.90
23685;DHT22;12020;51.384;6.908;2023-03-03T00:43:52;2.70;99.90
23685;DHT22;12020;51.384;6.908;2023-03-03T00:46:20;2.70;99.90
23685;DHT22;12020;51.384;6.908;2023-03-03T00:48:47;2.60;99.90
23685;DHT22;12020;51.384;6.908;2023-03-03T00:53:48;2.50;99.90
23685;DHT22;12020;51.384;6.908;2023-03-03T00:56:13;2.50;99.90
23685;DHT22;12020;51.384;6.908;2023-03-03T00:58:39;2.50;99.90
23685;DHT22;12020;51.384;6.908;2023-03-03T01:01:06;2.40;99.90
23685;DHT22;12020;51.384;6.908;2023-03-03T01:03:32;2.40;99.90
23685;DHT22;12020;51.384;6.908;2023-03-03T01:05:58;2.40;99.90
23685;DHT22;12020;51.384;6.908;2023-03-03T01:08:23;2.40;99.90
23685;DHT22;12020;51.384;6.908;2023-03-03T01:10:51;2.40;99.90
23685;DHT22;12020;51.384;6.908;2023-03-03T01:13:19;2.40;99.90
23685;DHT22;12020;51.384;6.908;2023-03-03T01:15:45;2.40;99.90
23685;DHT22;12020;51.384;6.908;2023-03-03T01:18:11;2.40;99.90
23685;DHT22;12020;51.384;6.908;2023-03-03T01:20:38;2.30;99.90
23685;DHT22;12020;51.384;6.908;2023-03-03T01:23:03;2.30;99.90
23685;DHT22;12020;51.384;6.908;2023-03-03T01:25:29;2.30;99.90
23685;DHT22;12020;51.384;6.908;2023-03-03T01:27:55;2.40;99.90
23685;DHT22;12020;51.384;6.908;2023-03-03T01:30:21;2.50;99.90
23685;DHT22;12020;51.384;6.908;2023-03-03T01:32:47;2.30;99.90
23685;DHT22;12020;51.384;6.908;2023-03-03T01:35:13;2.60;99.90
23685;DHT22;12020;51.384;6.908;2023-03-03T01:37:39;2.30;99.90
23685;DHT22;12020;51.384;6.908;2023-03-03T01:40:06;2.40;99.90
23685;DHT22;12020;51.384;6.908;2023-03-03T01:42:32;2.20;99.90
23685;DHT22;12020;51.384;6.908;2023-03-03T01:45:22;2.20;99.90
23685;DHT22;12020;51.384;6.908;2023-03-03T01:48:09;2.10;99.90
23685;DHT22;12020;51.384;6.908;2023-03-03T01:50:53;2.10;99.90
23685;DHT22;12020;51.384;6.908;2023-03-03T01:53:40;2.10;99.90
23685;DHT22;12020;51.384;6.908;2023-03-03T01:56:08;2.10;99.90
23685;DHT22;12020;51.384;6.908;2023-03-03T01:58:42;2.10;99.90
23685;DHT22;12020;51.384;6.908;2023-03-03T02:01:15;2.20;99.90
23685;DHT22;12020;51.384;6.908;2023-03-03T02:03:43;2.20;99.90
23685;DHT22;12020;51.384;6.908;2023-03-03T02:06:13;2.20;99.90
23685;DHT22;12020;51.384;6.908;2023-03-03T02:08:56;2.20;99.90
23685;DHT22;12020;51.384;6.908;2023-03-03T02:11:24;2.10;99.90
23685;DHT22;12020;51.384;6.908;2023-03-03T02:13:51;2.20;99.90
23685;DHT22;12020;51.384;6.908;2023-03-03T02:16:17;2.30;99.90
23685;DHT22;12020;51.384;6.908;2023-03-03T02:18:43;2.40;99.90
23685;DHT22;12020;51.384;6.908;2023-03-03T02:21:16;2.50;99.90
23685;DHT22;12020;51.384;6.908;2023-03-03T02:26:39;2.60;99.90
23685;DHT22;12020;51.384;6.908;2023-03-03T02:29:06;2.60;99.90
23685;DHT22;12020;51.384;6.908;2023-03-03T02:31:32;2.70;99.90
23685;DHT22;12020;51.384;6.908;2023-03-03T02:33:58;2.70;99.90
23685;DHT22;12020;51.384;6.908;2023-03-03T02:36:30;2.70;99.90
23685;DHT22;12020;51.384;6.908;2023-03-03T02:44:22;2.50;99.90
23685;DHT22;12020;51.384;6.908;2023-03-03T02:46:50;2.50;99.90
23685;DHT22;12020;51.384;6.908;2023-03-03T02:49:20;2.50;99.90
23685;DHT22;12020;51.384;6.908;2023-03-03T02:51:46;2.40;99.90
23685;DHT22;12020;51.384;6.908;2023-03-03T02:54:13;2.40;99.90
23685;DHT22;12020;51.384;6.908;2023-03-03T02:56:39;2.40;99.90
23685;DHT22;12020;51.384;6.908;2023-03-03T02:59:05;2.30;99.90
23685;DHT22;12020;51.384;6.908;2023-03-03T03:01:31;2.30;99.90
23685;DHT22;12020;51.384;6.908;2023-03-03T03:04:04;2.20;99.90
23685;DHT22;12020;51.384;6.908;2023-03-03T03:06:30;2.10;99.90
23685;DHT22;12020;51.384;6.908;2023-03-03T03:08:56;2.10;99.90
23685;DHT22;12020;51.384;6.908;2023-03-03T03:11:22;2.10;99.90
23685;DHT22;12020;51.384;6.908;2023-03-03T03:13:47;2.00;99.90
23685;DHT22;12020;51.384;6.908;2023-03-03T03:16:13;2.00;99.90
23685;DHT22;12020;51.384;6.908;2023-03-03T03:18:38;2.00;99.90
23685;DHT22;12020;51.384;6.908;2023-03-03T03:21:10;2.00;99.90
23685;DHT22;12020;51.384;6.908;2023-03-03T03:23:36;2.00;99.90
23685;DHT22;12020;51.384;6.908;2023-03-03T03:26:03;2.10;99.90
23685;DHT22;12020;51.384;6.908;2023-03-03T03:28:29;2.00;99.90
23685;DHT22;12020;51.384;6.908;2023-03-03T03:30:56;2.00;99.90
23685;DHT22;12020;51.384;6.908;2023-03-03T03:33:22;2.10;99.90
23685;DHT22;12020;51.384;6.908;2023-03-03T03:35:47;2.10;99.90
23685;DHT22;12020;51.384;6.908;2023-03-03T03:38:14;2.00;99.90
23685;DHT22;12020;51.384;6.908;2023-03-03T03:40:40;2.00;99.90
23685;DHT22;12020;51.384;6.908;2023-03-03T03:43:05;2.00;99.90
23685;DHT22;12020;51.384;6.908;2023-03-03T03:45:31;2.30;99.90
23685;DHT22;12020;51.384;6.908;2023-03-03T03:47:57;2.00;99.90
23685;DHT22;12020;51.384;6.908;2023-03-03T03:50:23;2.00;99.90
23685;DHT22;12020;51.384;6.908;2023-03-03T03:52:48;2.20;99.90
23685;DHT22;12020;51.384;6.908;2023-03-03T03:55:14;2.00;99.90
23685;DHT22;12020;51.384;6.908;2023-03-03T03:57:41;2.00;99.90
23685;DHT22;12020;51.384;6.908;2023-03-03T04:00:08;2.00;99.90
23685;DHT22;12020;51.384;6.908;2023-03-03T04:02:35;2.00;99.90
23685;DHT22;12020;51.384;6.908;2023-03-03T04:05:00;2.00;99.90
23685;DHT22;12020;51.384;6.908;2023-03-03T04:07:26;2.00;99.90
23685;DHT22;12020;51.384;6.908;2023-03-03T04:09:52;2.00;99.90
23685;DHT22;12020;51.384;6.908;2023-03-03T04:12:17;2.00;99.90
23685;DHT22;12020;51.384;6.908;2023-03-03T04:14:43;2.00;99.90
23685;DHT22;12020;51.384;6.908;2023-03-03T04:17:22;1.90;99.90
23685;DHT22;12020;51.384;6.908;2023-03-03T04:19:52;1.90;99.90
23685;DHT22;12020;51.384;6.908;2023-03-03T04:22:18;1.80;99.90
23685;DHT22;12020;51.384;6.908;2023-03-03T04:24:43;1.80;99.90
23685;DHT22;12020;51.384;6.908;2023-03-03T04:27:10;1.80;99.90
23685;DHT22;12020;51.384;6.908;2023-03-03T04:29:36;2.10;99.90
23685;DHT22;12020;51.384;6.908;2023-03-03T04:32:01;1.80;99.90
23685;DHT22;12020;51.384;6.908;2023-03-03T04:34:27;1.80;99.90
23685;DHT22;12020;51.384;6.908;2023-03-03T04:36:53;1.90;99.90
23685;DHT22;12020;51.384;6.908;2023-03-03T04:39:18;1.90;99.90
23685;DHT22;12020;51.384;6.908;2023-03-03T04:41:44;2.00;99.90
23685;DHT22;12020;51.384;6.908;2023-03-03T04:44:10;1.90;99.90
23685;DHT22;12020;51.384;6.908;2023-03-03T04:46:35;2.00;99.90
23685;DHT22;12020;51.384;6.908;2023-03-03T04:49:01;1.90;99.90
23685;DHT22;12020;51.384;6.908;2023-03-03T04:51:28;2.00;99.90
23685;DHT22;12020;51.384;6.908;2023-03-03T04:53:54;1.90;99.90
23685;DHT22;12020;51.384;6.908;2023-03-03T04:56:19;2.00;99.90
23685;DHT22;12020;51.384;6.908;2023-03-03T04:58:45;2.20;99.90
23685;DHT22;12020;51.384;6.908;2023-03-03T05:01:14;2.00;99.90
23685;DHT22;12020;51.384;6.908;2023-03-03T05:03:40;2.00;99.90
23685;DHT22;12020;51.384;6.908;2023-03-03T05:06:06;1.80;99.90
23685;DHT22;12020;51.384;6.908;2023-03-03T05:08:32;1.80;99.90
23685;DHT22;12020;51.384;6.908;2023-03-03T05:10:57;1.80;99.90
23685;DHT22;12020;51.384;6.908;2023-03-03T05:13:25;1.70;99.90
23685;DHT22;12020;51.384;6.908;2023-03-03T05:15:53;1.70;99.90
23685;DHT22;12020;51.384;6.908;2023-03-03T05:18:22;1.70;99.90
23685;DHT22;12020;51.384;6.908;2023-03-03T05:20:50;1.60;99.90
23685;DHT22;12020;51.384;6.908;2023-03-03T05:23:16;1.60;99.90
23685;DHT22;12020;51.384;6.908;2023-03-03T05:25:42;1.60;99.90
23685;DHT22;12020;51.384;6.908;2023-03-03T05:28:08;1.60;99.90
23685;DHT22;12020;51.384;6.908;2023-03-03T05:30:35;1.70;99.90
23685;DHT22;12020;51.384;6.908;2023-03-03T05:33:01;1.60;99.90
23685;DHT22;12020;51.384;6.908;2023-03-03T05:35:27;1.60;99.90
23685;DHT22;12020;51.384;6.908;2023-03-03T05:37:53;1.80;99.90
23685;DHT22;12020;51.384;6.908;2023-03-03T05:40:20;1.80;99.90
23685;DHT22;12020;51.384;6.908;2023-03-03T05:42:45;2.10;99.90
23685;DHT22;12020;51.384;6.908;2023-03-03T05:45:11;1.80;99.90
23685;DHT22;12020;51.384;6.908;2023-03-03T05:47:37;1.80;99.90
23685;DHT22;12020;51.384;6.908;2023-03-03T05:50:03;1.70;99.90
23685;DHT22;12020;51.384;6.908;2023-03-03T05:52:29;1.70;99.90
23685;DHT22;12020;51.384;6.908;2023-03-03T05:54:55;1.70;99.90
23685;DHT22;12020;51.384;6.908;2023-03-03T05:57:21;1.70;99.90
23685;DHT22;12020;51.384;6.908;2023-03-03T05:59:46;1.60;99.90
23685;DHT22;12020;51.384;6.908;2023-03-03T06:02:12;1.60;99.90
23685;DHT22;12020;51.384;6.908;2023-03-03T06:04:39;1.60;99.90
23685;DHT22;12020;51.384;6.908;2023-03-03T06:07:05;1.60;99.90
23685;DHT22;12020;51.384;6.908;2023-03-03T06:09:32;1.60;99.90
23685;DHT22;12020;51.384;6.908;2023-03-03T06:11:57;1.50;99.90
23685;DHT22;12020;51.384;6.908;2023-03-03T06:14:24;1.70;99.90
23685;DHT22;12020;51.384;6.908;2023-03-03T06:16:50;1.60;99.90
23685;DHT22;12020;51.384;6.908;2023-03-03T06:19:16;1.80;99.90
23685;DHT22;12020;51.384;6.908;2023-03-03T06:21:42;1.60;99.90
23685;DHT22;12020;51.384;6.908;2023-03-03T06:24:08;1.60;99.90
23685;DHT22;12020;51.384;6.908;2023-03-03T06:26:33;1.60;99.90
23685;DHT22;12020;51.384;6.908;2023-03-03T06:28:59;1.70;99.90
23685;DHT22;12020;51.384;6.908;2023-03-03T06:31:26;1.60;99.90
23685;DHT22;12020;51.384;6.908;2023-03-03T06:33:52;1.60;99.90
23685;DHT22;12020;51.384;6.908;2023-03-03T06:36:18;1.60;99.90
23685;DHT22;12020;51.384;6.908;2023-03-03T06:38:44;1.60;99.90
23685;DHT22;12020;51.384;6.908;2023-03-03T06:41:10;1.80;99.90
23685;DHT22;12020;51.384;6.908;2023-03-03T06:43:36;1.70;99.90
23685;DHT22;12020;51.384;6.908;2023-03-03T06:46:04;1.70;99.90
23685;DHT22;12020;51.384;6.908;2023-03-03T06:48:30;1.70;99.90
23685;DHT22;12020;51.384;6.908;2023-03-03T06:50:58;1.60;99.90
23685;DHT22;12020;51.384;6.908;2023-03-03T06:53:25;1.60;99.90
23685;DHT22;12020;51.384;6.908;2023-03-03T06:55:51;1.70;99.90
23685;DHT22;12020;51.384;6.908;2023-03-03T06:58:19;1.70;99.90
23685;DHT22;12020;51.384;6.908;2023-03-03T07:00:53;1.80;99.90
23685;DHT22;12020;51.384;6.908;2023-03-03T07:03:33;1.80;99.90
23685;DHT22;12020;51.384;6.908;2023-03-03T07:05:59;1.80;99.90
23685;DHT22;12020;51.384;6.908;2023-03-03T07:08:29;1.80;99.90
23685;DHT22;12020;51.384;6.908;2023-03-03T07:10:55;1.80;99.90
23685;DHT22;12020;51.384;6.908;2023-03-03T07:13:28;1.90;99.90
23685;DHT22;12020;51.384;6.908;2023-03-03T07:16:00;2.00;99.90
23685;DHT22;12020;51.384;6.908;2023-03-03T07:21:32;2.10;99.90
23685;DHT22;12020;51.384;6.908;2023-03-03T07:24:01;2.10;99.90
23685;DHT22;12020;51.384;6.908;2023-03-03T07:26:33;2.10;99.90
23685;DHT22;12020;51.384;6.908;2023-03-03T07:29:27;2.10;99.90
23685;DHT22;12020;51.384;6.908;2023-03-03T07:31:55;2.10;99.90
23685;DHT22;12020;51.384;6.908;2023-03-03T07:34:35;2.00;99.90
23685;DHT22;12020;51.384;6.908;2023-03-03T07:37:10;2.10;99.90
23685;DHT22;12020;51.384;6.908;2023-03-03T07:39:42;2.20;99.90
23685;DHT22;12020;51.384;6.908;2023-03-03T07:42:24;2.20;99.90
23685;DHT22;12020;51.384;6.908;2023-03-03T07:44:55;2.20;99.90
23685;DHT22;12020;51.384;6.908;2023-03-03T07:47:30;2.30;99.90
23685;DHT22;12020;51.384;6.908;2023-03-03T07:50:15;2.30;99.90
23685;DHT22;12020;51.384;6.908;2023-03-03T07:52:58;2.30;99.90
23685;DHT22;12020;51.384;6.908;2023-03-03T07:58:05;2.30;99.90
23685;DHT22;12020;51.384;6.908;2023-03-03T08:03:44;2.30;99.90
23685;DHT22;12020;51.384;6.908;2023-03-03T08:08:51;2.40;99.90
23685;DHT22;12020;51.384;6.908;2023-03-03T08:11:17;2.30;99.90
23685;DHT22;12020;51.384;6.908;2023-03-03T08:13:44;2.40;99.90
23685;DHT22;12020;51.384;6.908;2023-03-03T08:18:41;2.40;99.90
23685;DHT22;12020;51.384;6.908;2023-03-03T08:23:44;2.30;99.90
23685;DHT22;12020;51.384;6.908;2023-03-03T08:26:10;2.30;99.90
23685;DHT22;12020;51.384;6.908;2023-03-03T08:28:38;2.40;99.90
23685;DHT22;12020;51.384;6.908;2023-03-03T08:31:04;2.30;99.90
23685;DHT22;12020;51.384;6.908;2023-03-03T08:33:29;2.30;99.90
23685;DHT22;12020;51.384;6.908;2023-03-03T08:35:55;2.30;99.90
23685;DHT22;12020;51.384;6.908;2023-03-03T08:38:21;2.40;99.90
23685;DHT22;12020;51.384;6.908;2023-03-03T08:40:47;2.40;99.90
23685;DHT22;12020;51.384;6.908;2023-03-03T08:43:14;2.40;99.90
23685;DHT22;12020;51.384;6.908;2023-03-03T08:45:44;2.40;99.90
23685;DHT22;12020;51.384;6.908;2023-03-03T08:48:10;2.40;99.90
23685;DHT22;12020;51.384;6.908;2023-03-03T08:50:36;2.30;99.90
23685;DHT22;12020;51.384;6.908;2023-03-03T08:53:03;2.20;99.90
23685;DHT22;12020;51.384;6.908;2023-03-03T08:55:29;2.30;99.90
23685;DHT22;12020;51.384;6.908;2023-03-03T08:57:54;2.30;99.90
23685;DHT22;12020;51.384;6.908;2023-03-03T09:00:20;2.30;99.90
23685;DHT22;12020;51.384;6.908;2023-03-03T09:02:46;2.30;99.90
23685;DHT22;12020;51.384;6.908;2023-03-03T09:05:13;2.10;99.90
23685;DHT22;12020;51.384;6.908;2023-03-03T09:07:39;2.30;99.90
23685;DHT22;12020;51.384;6.908;2023-03-03T09:10:06;2.40;99.90
23685;DHT22;12020;51.384;6.908;2023-03-03T09:12:42;2.30;99.90
23685;DHT22;12020;51.384;6.908;2023-03-03T09:15:19;2.30;99.90
23685;DHT22;12020;51.384;6.908;2023-03-03T09:17:45;2.30;99.90
23685;DHT22;12020;51.384;6.908;2023-03-03T09:20:29;2.30;99.90
23685;DHT22;12020;51.384;6.908;2023-03-03T09:22:55;2.40;99.90
23685;DHT22;12020;51.384;6.908;2023-03-03T09:25:35;2.40;99.90
23685;DHT22;12020;51.384;6.908;2023-03-03T09:28:02;2.40;99.90
23685;DHT22;12020;51.384;6.908;2023-03-03T09:30:38;2.50;99.90
23685;DHT22;12020;51.384;6.908;2023-03-03T09:36:24;2.50;99.90
23685;DHT22;12020;51.384;6.908;2023-03-03T09:38:50;2.60;99.90
23685;DHT22;12020;51.384;6.908;2023-03-03T09:41:45;2.60;99.90
23685;DHT22;12020;51.384;6.908;2023-03-03T09:49:32;2.60;99.90
23685;DHT22;12020;51.384;6.908;2023-03-03T09:58:17;2.60;99.90
23685;DHT22;12020;51.384;6.908;2023-03-03T10:06:33;2.70;99.90
23685;DHT22;12020;51.384;6.908;2023-03-03T10:11:54;2.90;99.90
23685;DHT22;12020;51.384;6.908;2023-03-03T10:16:59;2.90;99.90
23685;DHT22;12020;51.384;6.908;2023-03-03T10:22:37;3.00;99.90
23685;DHT22;12020;51.384;6.908;2023-03-03T10:31:19;3.00;99.90
23685;DHT22;12020;51.384;6.908;2023-03-03T10:33:58;3.10;99.90
23685;DHT22;12020;51.384;6.908;2023-03-03T10:36:37;3.10;99.90
23685;DHT22;12020;51.384;6.908;2023-03-03T10:39:27;3.10;99.90
23685;DHT22;12020;51.384;6.908;2023-03-03T10:50:26;3.20;99.90
23685;DHT22;12020;51.384;6.908;2023-03-03T11:06:56;3.30;99.90
23685;DHT22;12020;51.384;6.908;2023-03-03T11:20:00;3.50;99.90
23685;DHT22;12020;51.384;6.908;2023-03-03T11:22:51;3.50;99.90
23685;DHT22;12020;51.384;6.908;2023-03-03T11:28:23;3.50;99.90
23685;DHT22;12020;51.384;6.908;2023-03-03T11:31:12;3.50;99.90
23685;DHT22;12020;51.384;6.908;2023-03-03T11:36:30;3.50;99.90
23685;DHT22;12020;51.384;6.908;2023-03-03T11:39:00;3.50;99.90
23685;DHT22;12020;51.384;6.908;2023-03-03T11:44:58;3.50;99.90
23685;DHT22;12020;51.384;6.908;2023-03-03T11:47:25;3.50;99.90
23685;DHT22;12020;51.384;6.908;2023-03-03T11:56:02;3.70;99.90
23685;DHT22;12020;51.384;6.908;2023-03-03T12:01:35;3.70;99.90
23685;DHT22;12020;51.384;6.908;2023-03-03T12:04:43;3.80;99.90
23685;DHT22;12020;51.384;6.908;2023-03-03T12:10:46;3.90;99.90
23685;DHT22;12020;51.384;6.908;2023-03-03T12:23:54;4.00;99.90
23685;DHT22;12020;51.384;6.908;2023-03-03T12:29:29;4.20;99.90
23685;DHT22;12020;51.384;6.908;2023-03-03T12:32:17;4.40;99.90
23685;DHT22;12020;51.384;6.908;2023-03-03T12:38:07;4.60;99.90
23685;DHT22;12020;51.384;6.908;2023-03-03T12:40:32;4.60;99.90
23685;DHT22;12020;51.384;6.908;2023-03-03T12:43:32;4.60;99.90
23685;DHT22;12020;51.384;6.908;2023-03-03T12:48:55;4.50;99.90
23685;DHT22;12020;51.384;6.908;2023-03-03T12:57:07;4.50;99.90
23685;DHT22;12020;51.384;6.908;2023-03-03T13:00:10;4.50;99.90
23685;DHT22;12020;51.384;6.908;2023-03-03T13:16:12;4.60;99.90
23685;DHT22;12020;51.384;6.908;2023-03-03T13:19:51;4.70;99.90
23685;DHT22;12020;51.384;6.908;2023-03-03T13:27:44;4.70;99.90
23685;DHT22;12020;51.384;6.908;2023-03-03T13:30:32;4.80;99.90
23685;DHT22;12020;51.384;6.908;2023-03-03T13:33:35;4.90;99.90
23685;DHT22;12020;51.384;6.908;2023-03-03T13:36:12;4.90;99.90
23685;DHT22;12020;51.384;6.908;2023-03-03T13:38:51;5.00;99.90
23685;DHT22;12020;51.384;6.908;2023-03-03T13:44:37;5.10;99.90
23685;DHT22;12020;51.384;6.908;2023-03-03T13:58:23;5.10;99.90
23685;DHT22;12020;51.384;6.908;2023-03-03T14:01:57;5.10;99.90
23685;DHT22;12020;51.384;6.908;2023-03-03T14:06:18;5.20;99.90
23685;DHT22;12020;51.384;6.908;2023-03-03T14:09:28;5.20;99.90
23685;DHT22;12020;51.384;6.908;2023-03-03T14:12:46;5.10;99.90
23685;DHT22;12020;51.384;6.908;2023-03-03T14:15:23;5.10;99.90
23685;DHT22;12020;51.384;6.908;2023-03-03T14:20:45;5.20;99.90
23685;DHT22;12020;51.384;6.908;2023-03-03T14:23:14;5.20;99.90
23685;DHT22;12020;51.384;6.908;2023-03-03T14:26:08;5.30;99.90
23685;DHT22;12020;51.384;6.908;2023-03-03T14:28:39;5.20;99.90
23685;DHT22;12020;51.384;6.908;2023-03-03T14:31:23;5.20;99.90
23685;DHT22;12020;51.384;6.908;2023-03-03T14:36:32;5.30;99.90
23685;DHT22;12020;51.384;6.908;2023-03-03T14:39:00;5.30;99.90
23685;DHT22;12020;51.384;6.908;2023-03-03T14:41:40;5.30;99.90
23685;DHT22;12020;51.384;6.908;2023-03-03T14:44:28;5.40;99.90
23685;DHT22;12020;51.384;6.908;2023-03-03T14:49:36;5.40;99.90
23685;DHT22;12020;51.384;6.908;2023-03-03T14:52:10;5.40;99.90
23685;DHT22;12020;51.384;6.908;2023-03-03T14:54:38;5.40;99.90
23685;DHT22;12020;51.384;6.908;2023-03-03T14:57:14;5.40;99.90
23685;DHT22;12020;51.384;6.908;2023-03-03T15:00:36;5.40;99.90
23685;DHT22;12020;51.384;6.908;2023-03-03T15:05:30;5.50;99.90
23685;DHT22;12020;51.384;6.908;2023-03-03T15:08:43;5.50;99.90
23685;DHT22;12020;51.384;6.908;2023-03-03T15:10:44;5.50;99.90
23685;DHT22;12020;51.384;6.908;2023-03-03T15:18:54;5.50;99.90
23685;DHT22;12020;51.384;6.908;2023-03-03T15:21:24;5.50;99.90
23685;DHT22;12020;51.384;6.908;2023-03-03T15:27:22;5.60;99.90
23685;DHT22;12020;51.384;6.908;2023-03-03T15:29:53;5.60;99.90
23685;DHT22;12020;51.384;6.908;2023-03-03T15:35:22;5.60;99.90
23685;DHT22;12020;51.384;6.908;2023-03-03T15:37:58;5.60;99.90
23685;DHT22;12020;51.384;6.908;2023-03-03T15:40:30;5.60;99.90
23685;DHT22;12020;51.384;6.908;2023-03-03T15:45:49;5.60;99.90
23685;DHT22;12020;51.384;6.908;2023-03-03T15:48:48;5.60;99.90
23685;DHT22;12020;51.384;6.908;2023-03-03T15:57:43;5.60;99.90
23685;DHT22;12020;51.384;6.908;2023-03-03T16:02:21;5.70;99.90
23685;DHT22;12020;51.384;6.908;2023-03-03T16:04:57;5.60;99.90
23685;DHT22;12020;51.384;6.908;2023-03-03T16:28:47;5.70;99.90
23685;DHT22;12020;51.384;6.908;2023-03-03T16:39:31;5.80;99.90
23685;DHT22;12020;51.384;6.908;2023-03-03T16:52:44;5.80;99.90
23685;DHT22;12020;51.384;6.908;2023-03-03T16:55:20;5.70;99.90
23685;DHT22;12020;51.384;6.908;2023-03-03T17:00:54;5.60;99.90
23685;DHT22;12020;51.384;6.908;2023-03-03T17:06:43;5.50;99.90
23685;DHT22;12020;51.384;6.908;2023-03-03T17:09:35;5.40;99.90
23685;DHT22;12020;51.384;6.908;2023-03-03T17:20:54;5.20;99.90
23685;DHT22;12020;51.384;6.908;2023-03-03T17:23:41;5.10;99.90
23685;DHT22;12020;51.384;6.908;2023-03-03T17:26:17;5.00;99.90
23685;DHT22;12020;51.384;6.908;2023-03-03T17:29:17;4.90;99.90
23685;DHT22;12020;51.384;6.908;2023-03-03T17:40:19;4.60;99.90
23685;DHT22;12020;51.384;6.908;2023-03-03T17:42:58;4.60;99.90
23685;DHT22;12020;51.384;6.908;2023-03-03T17:45:33;4.50;99.90
23685;DHT22;12020;51.384;6.908;2023-03-03T17:48:31;4.50;99.90
23685;DHT22;12020;51.384;6.908;2023-03-03T17:54:18;4.20;99.90
23685;DHT22;12020;51.384;6.908;2023-03-03T18:07:56;3.90;99.90
23685;DHT22;12020;51.384;6.908;2023-03-03T18:16:18;3.90;99.90
23685;DHT22;12020;51.384;6.908;2023-03-03T18:21:42;3.80;99.90
23685;DHT22;12020;51.384;6.908;2023-03-03T18:24:28;3.70;99.90
23685;DHT22;12020;51.384;6.908;2023-03-03T18:27:13;3.60;99.90
23685;DHT22;12020;51.384;6.908;2023-03-03T18:29:38;3.60;99.90
23685;DHT22;12020;51.384;6.908;2023-03-03T18:32:18;3.60;99.90
23685;DHT22;12020;51.384;6.908;2023-03-03T18:34:44;3.50;99.90
23685;DHT22;12020;51.384;6.908;2023-03-03T18:37:32;3.50;99.90
23685;DHT22;12020;51.384;6.908;2023-03-03T18:40:20;3.60;99.90
23685;DHT22;12020;51.384;6.908;2023-03-03T18:42:51;3.50;99.90
23685;DHT22;12020;51.384;6.908;2023-03-03T18:48:11;3.50;99.90
23685;DHT22;12020;51.384;6.908;2023-03-03T18:50:48;3.50;99.90
23685;DHT22;12020;51.384;6.908;2023-03-03T18:53:24;3.40;99.90
23685;DHT22;12020;51.384;6.908;2023-03-03T18:55:52;3.40;99.90
23685;DHT22;12020;51.384;6.908;2023-03-03T19:03:53;3.40;99.90
23685;DHT22;12020;51.384;6.908;2023-03-03T19:09:00;3.50;99.90
23685;DHT22;12020;51.384;6.908;2023-03-03T19:11:39;3.50;99.90
23685;DHT22;12020;51.384;6.908;2023-03-03T19:14:31;3.50;99.90
23685;DHT22;12020;51.384;6.908;2023-03-03T19:20:11;3.50;99.90
23685;DHT22;12020;51.384;6.908;2023-03-03T19:22:51;3.60;99.90
23685;DHT22;12020;51.384;6.908;2023-03-03T19:25:23;3.60;99.90
23685;DHT22;12020;51.384;6.908;2023-03-03T19:36:16;3.60;99.90
23685;DHT22;12020;51.384;6.908;2023-03-03T19:39:00;3.60;99.90
23685;DHT22;12020;51.384;6.908;2023-03-03T19:47:22;3.60;99.90
23685;DHT22;12020;51.384;6.908;2023-03-03T19:49:53;3.60;99.90
23685;DHT22;12020;51.384;6.908;2023-03-03T19:52:55;3.60;99.90
23685;DHT22;12020;51.384;6.908;2023-03-03T19:55:29;3.60;99.90
23685;DHT22;12020;51.384;6.908;2023-03-03T20:03:40;3.50;99.90
23685;DHT22;12020;51.384;6.908;2023-03-03T20:06:46;3.50;99.90
23685;DHT22;12020;51.384;6.908;2023-03-03T20:15:13;3.50;99.90
23685;DHT22;12020;51.384;6.908;2023-03-03T20:18:07;3.50;99.90
23685;DHT22;12020;51.384;6.908;2023-03-03T20:37:24;3.70;99.90
23685;DHT22;12020;51.384;6.908;2023-03-03T20:40:08;3.60;99.90
23685;DHT22;12020;51.384;6.908;2023-03-03T20:49:07;3.70;99.90
23685;DHT22;12020;51.384;6.908;2023-03-03T20:51:57;3.70;99.90
23685;DHT22;12020;51.384;6.908;2023-03-03T20:54:54;3.70;99.90
23685;DHT22;12020;51.384;6.908;2023-03-03T21:05:20;3.80;99.90
23685;DHT22;12020;51.384;6.908;2023-03-03T21:08:02;3.80;99.90
23685;DHT22;12020;51.384;6.908;2023-03-03T21:10:36;3.80;99.90
23685;DHT22;12020;51.384;6.908;2023-03-03T21:16:11;4.10;99.90
23685;DHT22;12020;51.384;6.908;2023-03-03T21:18:37;4.10;99.90
23685;DHT22;12020;51.384;6.908;2023-03-03T21:21:04;4.00;99.90
23685;DHT22;12020;51.384;6.908;2023-03-03T21:23:30;4.00;99.90
23685;DHT22;12020;51.384;6.908;2023-03-03T21:25:56;4.00;99.90
23685;DHT22;12020;51.384;6.908;2023-03-03T21:28:29;4.00;99.90
23685;DHT22;12020;51.384;6.908;2023-03-03T21:33:48;3.90;99.90
23685;DHT22;12020;51.384;6.908;2023-03-03T21:36:17;4.00;99.90
23685;DHT22;12020;51.384;6.908;2023-03-03T21:38:45;4.00;99.90
23685;DHT22;12020;51.384;6.908;2023-03-03T21:41:12;4.00;99.90
23685;DHT22;12020;51.384;6.908;2023-03-03T21:43:41;4.00;99.90
23685;DHT22;12020;51.384;6.908;2023-03-03T21:46:07;4.00;99.90
23685;DHT22;12020;51.384;6.908;2023-03-03T21:48:32;4.00;99.90
23685;DHT22;12020;51.384;6.908;2023-03-03T21:50:58;4.00;99.90
23685;DHT22;12020;51.384;6.908;2023-03-03T21:53:24;4.00;99.90
23685;DHT22;12020;51.384;6.908;2023-03-03T21:55:51;4.00;99.90
23685;DHT22;12020;51.384;6.908;2023-03-03T21:58:18;4.00;99.90
23685;DHT22;12020;51.384;6.908;2023-03-03T22:00:44;4.00;99.90
23685;DHT22;12020;51.384;6.908;2023-03-03T22:03:11;4.00;99.90
23685;DHT22;12020;51.384;6.908;2023-03-03T22:05:42;4.00;99.90
23685;DHT22;12020;51.384;6.908;2023-03-03T22:08:08;3.90;99.90
23685;DHT22;12020;51.384;6.908;2023-03-03T22:10:35;4.00;99.90
23685;DHT22;12020;51.384;6.908;2023-03-03T22:13:01;4.00;99.90
23685;DHT22;12020;51.384;6.908;2023-03-03T22:15:30;4.00;99.90
23685;DHT22;12020;51.384;6.908;2023-03-03T22:17:59;4.10;99.90
23685;DHT22;12020;51.384;6.908;2023-03-03T22:20:25;4.00;99.90
23685;DHT22;12020;51.384;6.908;2023-03-03T22:22:51;4.10;99.90
23685;DHT22;12020;51.384;6.908;2023-03-03T22:25:18;4.10;99.90
23685;DHT22;12020;51.384;6.908;2023-03-03T22:27:46;4.10;99.90
23685;DHT22;12020;51.384;6.908;2023-03-03T22:30:17;4.10;99.90
23685;DHT22;12020;51.384;6.908;2023-03-03T22:32:44;4.10;99.90
23685;DHT22;12020;51.384;6.908;2023-03-03T22:35:13;4.10;99.90